Time;durP1;ratioP1;P1;durP2;ratioP2;P2;SDS_P1;SDS_P2;PMS_P1;PMS_P2;Temp;Humidity;BMP_temperature;BMP_pressure;BME280_temperature;BME280_humidity;BME280_pressure;Samples;Min_cycle;Max_cycle;Signal;HPM_P1;HPM_P2
2021/07/18 00:02:24;;;;;;;6.57;4.40;;;18.30;99.90;;;;;;5045722;28;20713;-66
2021/07/18 00:04:55;;;;;;;5.67;4.40;;;18.40;99.90;;;;;;5046336;28;20242;-66
2021/07/18 00:07:25;;;;;;;9.03;4.17;;;18.30;99.90;;;;;;5047173;28;20241;-66
2021/07/18 00:09:55;;;;;;;6.63;3.90;;;18.30;99.90;;;;;;5046867;28;20245;-65
2021/07/18 00:12:26;;;;;;;7.27;3.80;;;18.30;99.90;;;;;;5047283;28;20317;-66
2021/07/18 00:14:55;;;;;;;6.93;4.20;;;18.30;99.90;;;;;;5059570;28;20566;-66
2021/07/18 00:17:25;;;;;;;7.67;4.40;;;18.30;99.90;;;;;;5064156;28;20245;-66
2021/07/18 00:19:54;;;;;;;6.90;3.77;;;18.20;99.90;;;;;;5063844;28;20319;-66
2021/07/18 00:22:24;;;;;;;5.90;4.00;;;18.20;99.90;;;;;;5065236;28;20237;-66
2021/07/18 00:24:53;;;;;;;6.93;3.80;;;18.20;99.90;;;;;;5052715;28;20614;-66
2021/07/18 00:27:23;;;;;;;7.67;4.30;;;18.10;99.90;;;;;;5045380;28;20814;-66
2021/07/18 00:29:54;;;;;;;6.53;3.67;;;18.20;99.90;;;;;;5044404;28;20316;-65
2021/07/18 00:32:23;;;;;;;9.37;4.23;;;18.20;99.90;;;;;;5045423;28;20237;-66
2021/07/18 00:34:53;;;;;;;6.20;4.20;;;18.20;99.90;;;;;;5046891;28;20645;-66
2021/07/18 00:37:22;;;;;;;6.97;4.47;;;18.20;99.90;;;;;;5050888;28;20238;-66
2021/07/18 00:39:52;;;;;;;7.00;3.60;;;18.20;99.90;;;;;;5050630;28;20237;-65
2021/07/18 00:42:22;;;;;;;7.60;3.73;;;18.20;99.90;;;;;;5050062;28;20261;-65
2021/07/18 00:44:53;;;;;;;8.73;4.10;;;18.10;99.90;;;;;;5050216;28;20291;-65
2021/07/18 00:47:23;;;;;;;8.70;4.10;;;18.10;99.90;;;;;;5050294;28;20243;-65
2021/07/18 00:49:53;;;;;;;6.53;4.10;;;18.10;99.90;;;;;;5050733;28;20469;-65
2021/07/18 00:52:23;;;;;;;8.57;4.33;;;18.10;99.90;;;;;;5050934;28;20242;-66
2021/07/18 00:54:52;;;;;;;7.03;4.10;;;18.00;99.90;;;;;;5050175;28;20249;-66
2021/07/18 00:57:22;;;;;;;6.80;4.37;;;18.00;99.90;;;;;;5050527;28;20766;-66
2021/07/18 00:59:54;;;;;;;5.83;3.70;;;18.00;99.90;;;;;;5050099;28;20238;-66
2021/07/18 01:02:24;;;;;;;7.10;3.87;;;18.00;99.90;;;;;;5050445;28;20245;-65
2021/07/18 01:04:54;;;;;;;5.43;3.77;;;18.00;99.90;;;;;;5062519;28;20916;-65
2021/07/18 01:07:24;;;;;;;4.73;3.30;;;18.00;99.90;;;;;;5070026;28;20272;-66
2021/07/18 01:09:54;;;;;;;7.50;3.77;;;18.00;99.90;;;;;;5068539;28;20241;-65
2021/07/18 01:12:24;;;;;;;4.67;3.70;;;17.90;99.90;;;;;;5070603;28;20608;-66
2021/07/18 01:14:54;;;;;;;8.53;3.53;;;17.90;99.90;;;;;;5064108;28;20596;-65
2021/07/18 01:17:24;;;;;;;6.10;3.80;;;17.90;99.90;;;;;;5061212;28;20249;-66
2021/07/18 01:19:54;;;;;;;5.73;3.47;;;17.90;99.90;;;;;;5049574;28;20239;-66
2021/07/18 01:22:25;;;;;;;7.90;3.73;;;17.90;99.90;;;;;;5048400;28;20260;-66
2021/07/18 01:24:55;;;;;;;8.67;4.17;;;17.80;99.90;;;;;;5049343;28;20234;-66
2021/07/18 01:27:25;;;;;;;7.90;4.10;;;17.80;99.90;;;;;;5049894;28;20299;-66
2021/07/18 01:29:55;;;;;;;7.57;4.00;;;17.80;99.90;;;;;;5065338;28;20244;-65
2021/07/18 01:32:24;;;;;;;8.83;3.43;;;17.80;99.90;;;;;;5061747;28;20951;-65
2021/07/18 01:34:54;;;;;;;6.23;3.90;;;17.80;99.90;;;;;;5036939;28;20377;-66
2021/07/18 01:37:24;;;;;;;7.47;3.97;;;17.80;99.90;;;;;;5029785;28;20238;-66
2021/07/18 01:39:54;;;;;;;8.17;5.10;;;17.80;99.90;;;;;;5041903;28;20229;-65
2021/07/18 01:42:24;;;;;;;7.60;4.27;;;17.80;99.90;;;;;;5049802;28;20241;-66
2021/07/18 01:44:54;;;;;;;8.97;4.40;;;17.80;99.90;;;;;;5061264;28;20244;-66
2021/07/18 01:47:23;;;;;;;4.43;3.40;;;17.70;99.90;;;;;;5069221;28;20272;-66
2021/07/18 01:49:52;;;;;;;7.13;4.13;;;17.80;99.90;;;;;;5057502;28;20320;-66
2021/07/18 01:52:22;;;;;;;6.30;3.77;;;17.80;99.90;;;;;;5049788;28;20295;-65
2021/07/18 01:54:55;;;;;;;8.27;3.90;;;17.70;99.90;;;;;;5060752;28;20234;-65
2021/07/18 01:57:25;;;;;;;7.97;4.47;;;17.70;99.90;;;;;;5046783;28;20379;-65
2021/07/18 01:59:55;;;;;;;7.13;4.20;;;17.70;99.90;;;;;;5026191;28;20324;-65
2021/07/18 02:02:24;;;;;;;7.57;4.03;;;17.70;99.90;;;;;;4991568;28;20252;-66
2021/07/18 02:04:52;;;;;;;8.00;5.23;;;17.60;99.90;;;;;;5001324;28;20316;-65
2021/07/18 02:07:20;;;;;;;7.33;4.63;;;17.70;99.90;;;;;;5009340;28;20266;-66
2021/07/18 02:09:48;;;;;;;8.90;4.50;;;17.70;99.90;;;;;;5008634;28;20241;-66
2021/07/18 02:12:18;;;;;;;7.93;4.90;;;17.70;99.90;;;;;;5009651;28;20726;-66
2021/07/18 02:14:46;;;;;;;7.30;4.20;;;17.70;99.90;;;;;;5009145;28;20362;-65
2021/07/18 02:17:14;;;;;;;8.27;3.80;;;17.70;99.90;;;;;;5009429;28;20266;-66
2021/07/18 02:19:42;;;;;;;6.80;4.40;;;17.60;99.90;;;;;;5008851;28;20609;-66
2021/07/18 02:22:11;;;;;;;8.17;4.63;;;17.60;99.90;;;;;;5009063;28;20231;-65
2021/07/18 02:24:39;;;;;;;6.43;4.30;;;17.60;99.90;;;;;;5018960;28;20382;-66
2021/07/18 02:27:08;;;;;;;7.00;4.37;;;17.60;99.90;;;;;;5029003;28;20288;-66
2021/07/18 02:29:38;;;;;;;7.97;4.43;;;17.60;99.90;;;;;;5028304;28;20230;-65
2021/07/18 02:32:06;;;;;;;9.53;4.70;;;17.60;99.90;;;;;;5025445;28;20232;-66
2021/07/18 02:34:35;;;;;;;8.57;4.67;;;17.60;99.90;;;;;;5028595;28;20234;-66
2021/07/18 02:37:03;;;;;;;6.70;4.50;;;17.70;99.90;;;;;;5028222;28;20236;-66
2021/07/18 02:39:31;;;;;;;7.17;4.10;;;17.60;99.90;;;;;;5028056;28;20753;-66
2021/07/18 02:41:59;;;;;;;7.67;3.87;;;17.60;99.90;;;;;;5028293;28;20232;-66
2021/07/18 02:44:28;;;;;;;6.93;4.37;;;17.60;99.90;;;;;;4997569;28;20241;-66
2021/07/18 02:46:57;;;;;;;8.87;4.07;;;17.60;99.90;;;;;;5008670;28;20647;-66
2021/07/18 02:49:25;;;;;;;7.47;4.27;;;17.60;99.90;;;;;;5008012;28;20293;-65
2021/07/18 02:51:54;;;;;;;8.27;4.67;;;17.60;99.90;;;;;;5008888;28;20408;-66
2021/07/18 02:54:22;;;;;;;8.00;3.83;;;17.60;99.90;;;;;;5008778;28;20273;-66
2021/07/18 02:56:50;;;;;;;8.17;4.47;;;17.60;99.90;;;;;;5008533;28;20277;-66
2021/07/18 02:59:18;;;;;;;7.80;4.20;;;17.60;99.90;;;;;;5030072;28;20247;-66
2021/07/18 03:01:46;;;;;;;7.60;4.50;;;17.60;99.90;;;;;;5047809;28;20699;-66
2021/07/18 03:04:15;;;;;;;7.23;4.50;;;17.50;99.90;;;;;;5047996;28;20275;-66
2021/07/18 03:06:44;;;;;;;4.60;4.10;;;17.50;99.90;;;;;;5037521;28;20301;-66
2021/07/18 03:09:12;;;;;;;6.27;4.30;;;17.50;99.90;;;;;;5014826;28;20261;-66
2021/07/18 03:11:40;;;;;;;7.10;4.20;;;17.50;99.90;;;;;;5027748;28;20241;-66
2021/07/18 03:14:08;;;;;;;7.47;3.90;;;17.50;99.90;;;;;;5028466;28;20235;-66
2021/07/18 03:16:36;;;;;;;8.53;4.03;;;17.50;99.90;;;;;;5027464;28;20290;-66
2021/07/18 03:19:04;;;;;;;10.83;4.53;;;17.50;99.90;;;;;;5026987;28;20242;-66
2021/07/18 03:21:34;;;;;;;9.33;4.53;;;17.50;99.90;;;;;;5028078;28;20244;-66
2021/07/18 03:24:02;;;;;;;7.50;4.40;;;17.50;99.90;;;;;;5027722;28;20237;-65
2021/07/18 03:26:31;;;;;;;8.67;4.30;;;17.50;99.90;;;;;;5027638;28;20237;-66
2021/07/18 03:28:59;;;;;;;10.50;4.33;;;17.50;99.90;;;;;;5031952;28;20715;-66
2021/07/18 03:31:27;;;;;;;8.53;4.40;;;17.50;99.90;;;;;;5047710;28;20264;-65
2021/07/18 03:33:55;;;;;;;9.30;4.67;;;17.60;99.90;;;;;;5047483;28;20230;-66
2021/07/18 03:36:23;;;;;;;8.50;4.23;;;17.60;99.90;;;;;;5047458;28;20789;-66
2021/07/18 03:38:53;;;;;;;6.43;4.13;;;17.60;99.90;;;;;;5047128;28;20239;-66
2021/07/18 03:41:21;;;;;;;9.70;4.33;;;17.60;99.90;;;;;;5029192;28;20254;-66
2021/07/18 03:43:49;;;;;;;6.73;4.17;;;17.60;99.90;;;;;;5030914;28;20239;-66
2021/07/18 03:46:17;;;;;;;7.63;4.33;;;17.50;99.90;;;;;;5034855;28;20245;-66
2021/07/18 03:48:45;;;;;;;8.30;4.67;;;17.60;99.90;;;;;;5027001;28;20959;-65
2021/07/18 03:51:14;;;;;;;6.57;4.43;;;17.60;99.90;;;;;;5027654;28;20259;-66
2021/07/18 03:53:42;;;;;;;7.70;4.60;;;17.60;99.90;;;;;;5027203;28;20233;-66
2021/07/18 03:56:11;;;;;;;8.43;4.50;;;17.70;99.90;;;;;;5026213;28;20611;-66
2021/07/18 03:58:39;;;;;;;7.27;4.60;;;17.70;99.90;;;;;;5025798;28;20269;-66
2021/07/18 04:01:11;;;;;;;6.50;4.30;;;17.70;99.90;;;;;;5026954;28;20698;-66
2021/07/18 04:03:40;;;;;;;7.03;4.20;;;17.70;99.90;;;;;;5025944;28;20332;-66
2021/07/18 04:06:08;;;;;;;5.97;4.33;;;17.70;99.90;;;;;;5026829;28;20747;-66
2021/07/18 04:08:36;;;;;;;6.53;4.20;;;17.70;99.90;;;;;;5044983;28;20237;-66
2021/07/18 04:11:04;;;;;;;7.27;4.60;;;17.80;99.90;;;;;;5047958;28;20234;-66
2021/07/18 04:13:34;;;;;;;9.63;5.03;;;17.80;99.90;;;;;;5049292;28;20240;-66
2021/07/18 04:16:02;;;;;;;6.77;4.63;;;17.90;99.90;;;;;;5049733;28;20238;-66
2021/07/18 04:18:31;;;;;;;6.23;4.60;;;17.90;99.90;;;;;;5049518;28;20252;-66
2021/07/18 04:20:59;;;;;;;6.97;4.27;;;18.00;99.90;;;;;;5049311;28;20244;-66
2021/07/18 04:23:28;;;;;;;5.47;4.13;;;18.00;99.90;;;;;;5049484;28;20255;-66
2021/07/18 04:25:56;;;;;;;6.27;4.40;;;18.00;99.90;;;;;;5049444;28;20566;-66
2021/07/18 04:28:24;;;;;;;6.77;3.90;;;18.10;99.90;;;;;;5049335;28;20470;-66
2021/07/18 04:30:54;;;;;;;8.20;4.20;;;18.10;99.90;;;;;;5049751;28;20255;-66
2021/07/18 04:33:22;;;;;;;10.53;4.23;;;18.20;99.90;;;;;;5040705;28;20696;-66
2021/07/18 04:35:50;;;;;;;7.80;4.93;;;18.30;99.90;;;;;;5028962;28;20230;-66
2021/07/18 04:38:18;;;;;;;7.00;4.07;;;18.40;99.90;;;;;;5028033;28;20238;-66
2021/07/18 04:40:46;;;;;;;8.27;4.50;;;18.40;99.90;;;;;;5048364;28;20236;-66
2021/07/18 04:43:14;;;;;;;10.60;4.20;;;18.40;99.90;;;;;;5050101;28;20299;-66
2021/07/18 04:45:43;;;;;;;6.90;3.87;;;18.40;99.90;;;;;;5050003;28;20265;-66
2021/07/18 04:48:13;;;;;;;6.87;3.77;;;18.50;99.90;;;;;;5050223;28;20662;-66
2021/07/18 04:50:41;;;;;;;7.70;4.07;;;18.50;99.90;;;;;;5048482;28;20244;-66
2021/07/18 04:53:09;;;;;;;5.90;4.00;;;18.50;99.90;;;;;;5051273;28;20690;-66
2021/07/18 04:55:37;;;;;;;7.50;4.27;;;18.50;99.90;;;;;;5050140;28;20238;-66
2021/07/18 04:58:05;;;;;;;6.67;3.63;;;18.70;99.90;;;;;;5050606;28;20751;-66
2021/07/18 05:00:33;;;;;;;8.07;4.10;;;18.70;99.90;;;;;;5049344;28;20238;-66
2021/07/18 05:03:01;;;;;;;5.90;3.70;;;18.70;99.90;;;;;;5050212;28;20292;-66
2021/07/18 05:05:31;;;;;;;8.00;3.97;;;18.80;99.90;;;;;;5047993;28;20960;-66
2021/07/18 05:08:00;;;;;;;8.00;4.03;;;18.90;99.90;;;;;;5050101;28;20243;-66
2021/07/18 05:10:29;;;;;;;6.37;3.97;;;18.90;99.90;;;;;;5049669;28;20234;-66
2021/07/18 05:12:59;;;;;;;7.40;3.90;;;19.00;99.90;;;;;;5049947;28;20238;-66
2021/07/18 05:15:28;;;;;;;9.97;4.00;;;19.00;99.90;;;;;;5049297;28;20248;-66
2021/07/18 05:17:58;;;;;;;6.53;3.97;;;19.10;99.90;;;;;;5049900;28;20630;-66
2021/07/18 05:20:26;;;;;;;7.40;3.90;;;19.10;99.90;;;;;;5049366;28;20242;-66
2021/07/18 05:22:55;;;;;;;5.90;3.87;;;19.20;99.90;;;;;;5049362;28;20293;-66
2021/07/18 05:25:25;;;;;;;7.90;3.80;;;19.30;99.90;;;;;;5049491;28;20246;-66
2021/07/18 05:27:53;;;;;;;7.50;3.50;;;19.40;99.90;;;;;;5049607;28;20238;-66
2021/07/18 05:30:21;;;;;;;7.57;3.63;;;19.50;99.90;;;;;;5049301;28;20354;-66
2021/07/18 05:32:49;;;;;;;8.57;3.53;;;19.60;99.90;;;;;;5049440;28;20659;-66
2021/07/18 05:35:17;;;;;;;4.83;3.27;;;19.70;99.90;;;;;;5047506;28;20243;-66
2021/07/18 05:37:45;;;;;;;7.90;3.43;;;19.80;99.90;;;;;;5049470;28;20289;-66
2021/07/18 05:40:15;;;;;;;5.47;3.30;;;19.90;99.90;;;;;;5049002;28;20749;-66
2021/07/18 05:42:43;;;;;;;6.00;3.50;;;20.10;99.90;;;;;;5049406;28;20644;-66
2021/07/18 05:45:13;;;;;;;8.10;3.63;;;20.20;99.90;;;;;;5049015;28;20624;-66
2021/07/18 05:47:42;;;;;;;6.87;3.37;;;20.30;99.90;;;;;;5047402;28;20246;-66
2021/07/18 05:50:12;;;;;;;7.37;3.63;;;20.50;99.90;;;;;;5047377;28;20598;-66
2021/07/18 05:52:40;;;;;;;7.70;3.50;;;20.60;99.90;;;;;;5047016;28;20243;-66
2021/07/18 05:55:10;;;;;;;6.47;3.43;;;20.80;99.90;;;;;;5047208;28;20723;-66
2021/07/18 05:57:40;;;;;;;6.23;3.00;;;21.00;99.90;;;;;;5047988;28;20235;-66
2021/07/18 06:00:10;;;;;;;5.03;3.30;;;21.10;99.90;;;;;;5047041;28;20258;-66
2021/07/18 06:02:40;;;;;;;5.87;3.00;;;21.10;99.90;;;;;;5047870;28;20239;-66
2021/07/18 06:05:09;;;;;;;6.00;3.20;;;21.30;99.90;;;;;;5046566;28;20247;-66
2021/07/18 06:07:38;;;;;;;5.80;2.90;;;21.30;99.90;;;;;;5011374;28;20233;-66
2021/07/18 06:10:08;;;;;;;4.77;2.97;;;21.50;99.90;;;;;;5021357;28;20308;-66
2021/07/18 06:12:36;;;;;;;6.93;3.60;;;21.80;99.90;;;;;;5027382;28;20300;-66
2021/07/18 06:15:07;;;;;;;9.27;3.23;;;21.80;99.90;;;;;;5025812;28;20232;-66
2021/07/18 06:17:37;;;;;;;6.17;3.13;;;22.00;99.90;;;;;;5027216;28;20251;-66
2021/07/18 06:20:08;;;;;;;5.63;2.90;;;22.00;99.90;;;;;;5045592;28;20243;-66
2021/07/18 06:22:37;;;;;;;8.07;3.93;;;22.20;99.90;;;;;;5047306;28;20242;-66
2021/07/18 06:25:07;;;;;;;7.93;3.20;;;22.10;99.90;;;;;;5033395;28;20322;-66
2021/07/18 06:27:36;;;;;;;8.23;3.20;;;22.20;99.90;;;;;;5044815;28;20270;-66
2021/07/18 06:30:06;;;;;;;6.87;3.20;;;22.20;99.90;;;;;;5046218;28;20231;-66
2021/07/18 06:32:35;;;;;;;5.67;3.00;;;22.20;99.90;;;;;;5046350;28;20239;-66
2021/07/18 06:35:03;;;;;;;7.07;2.97;;;22.40;99.90;;;;;;5034631;28;20259;-67
2021/07/18 06:37:31;;;;;;;6.73;3.13;;;22.30;99.90;;;;;;5026050;28;20781;-66
2021/07/18 06:39:59;;;;;;;6.80;2.90;;;22.10;99.90;;;;;;5038576;28;20255;-66
2021/07/18 06:42:29;;;;;;;9.03;3.43;;;21.90;99.90;;;;;;5046873;28;20313;-66
2021/07/18 06:44:58;;;;;;;7.90;3.10;;;21.80;99.90;;;;;;5045125;28;20650;-66
2021/07/18 06:47:28;;;;;;;9.93;3.27;;;21.90;99.90;;;;;;5030067;28;20327;-66
2021/07/18 06:49:57;;;;;;;5.23;3.07;;;22.00;99.90;;;;;;5027602;28;20258;-66
2021/07/18 06:52:26;;;;;;;6.97;2.80;;;22.30;99.90;;;;;;5026628;28;20243;-66
2021/07/18 06:54:54;;;;;;;8.30;2.83;;;22.50;99.90;;;;;;5026639;28;20637;-67
2021/07/18 06:57:23;;;;;;;6.97;2.43;;;22.50;99.90;;;;;;5026346;28;20247;-67
2021/07/18 06:59:52;;;;;;;7.30;3.17;;;22.60;99.90;;;;;;5021327;28;20693;-66
2021/07/18 07:02:20;;;;;;;6.63;2.57;;;22.80;99.90;;;;;;5027051;28;20228;-67
2021/07/18 07:04:49;;;;;;;8.23;2.60;;;23.30;99.90;;;;;;5026110;28;20600;-66
2021/07/18 07:07:20;;;;;;;7.17;2.77;;;23.50;99.90;;;;;;5026973;28;20290;-67
2021/07/18 07:09:48;;;;;;;6.00;2.77;;;23.60;99.90;;;;;;5025648;28;20240;-66
2021/07/18 07:12:16;;;;;;;7.57;2.50;;;23.30;99.90;;;;;;5015171;28;20603;-66
2021/07/18 07:14:45;;;;;;;7.47;2.20;;;23.20;99.90;;;;;;5025994;28;20290;-67
2021/07/18 07:17:13;;;;;;;6.73;2.77;;;23.20;99.90;;;;;;5026152;28;20243;-67
2021/07/18 07:19:41;;;;;;;7.97;2.67;;;23.30;99.90;;;;;;5025268;28;20275;-66
2021/07/18 07:22:11;;;;;;;10.80;2.90;;;23.70;99.90;;;;;;5013131;28;20237;-67
2021/07/18 07:24:39;;;;;;;6.00;2.30;;;24.10;99.90;;;;;;5025804;28;20846;-67
2021/07/18 07:27:07;;;;;;;4.80;2.57;;;24.30;99.90;;;;;;5030360;28;20772;-69
2021/07/18 07:29:35;;;;;;;5.87;2.53;;;24.70;99.90;;;;;;5045146;28;20247;-69
2021/07/18 07:32:04;;;;;;;6.67;2.67;;;25.00;99.90;;;;;;5043980;28;20274;-69
2021/07/18 07:34:36;;;;;;;6.77;2.30;;;25.30;99.90;;;;;;5045498;28;20358;-69
2021/07/18 07:37:04;;;;;;;6.20;2.70;;;25.50;99.90;;;;;;5045516;28;20237;-69
2021/07/18 07:39:34;;;;;;;5.70;2.57;;;25.30;99.90;;;;;;5045076;28;20249;-69
2021/07/18 07:42:02;;;;;;;7.33;2.80;;;25.20;99.90;;;;;;5045657;28;20256;-69
2021/07/18 07:44:31;;;;;;;7.60;2.67;;;25.10;99.90;;;;;;5044495;28;20263;-69
2021/07/18 07:46:59;;;;;;;5.93;2.50;;;25.00;99.90;;;;;;5044523;28;20270;-69
2021/07/18 07:49:28;;;;;;;7.17;2.57;;;25.00;99.90;;;;;;5044039;28;20245;-69
2021/07/18 07:51:56;;;;;;;6.07;2.57;;;24.70;99.90;;;;;;5045820;28;20320;-69
2021/07/18 07:54:25;;;;;;;6.43;2.50;;;24.60;99.90;;;;;;5044914;28;20243;-69
2021/07/18 07:56:54;;;;;;;7.43;2.57;;;25.00;99.90;;;;;;5045696;28;20232;-69
2021/07/18 07:59:22;;;;;;;8.13;2.50;;;25.70;99.90;;;;;;5044838;28;20671;-69
2021/07/18 08:01:50;;;;;;;4.57;2.27;;;26.60;99.90;;;;;;5045137;28;20234;-69
2021/07/18 08:04:19;;;;;;;3.67;2.07;;;27.00;99.90;;;;;;5045568;28;20296;-69
2021/07/18 08:06:47;;;;;;;5.27;2.13;;;26.60;99.90;;;;;;5045093;28;20237;-69
2021/07/18 08:09:15;;;;;;;6.80;2.20;;;26.70;99.90;;;;;;5045051;28;20273;-69
2021/07/18 08:11:43;;;;;;;5.13;2.20;;;27.10;99.90;;;;;;5043973;28;20241;-69
2021/07/18 08:14:13;;;;;;;7.10;2.40;;;27.10;99.90;;;;;;5044995;28;20246;-69
2021/07/18 08:16:41;;;;;;;6.37;2.30;;;27.00;99.90;;;;;;5045159;28;20242;-69
2021/07/18 08:19:09;;;;;;;5.87;2.53;;;27.20;99.90;;;;;;5045473;28;20235;-70
2021/07/18 08:21:37;;;;;;;6.37;2.50;;;26.90;99.90;;;;;;5045354;28;20242;-70
2021/07/18 08:24:09;;;;;;;5.37;2.30;;;26.40;99.90;;;;;;5044763;28;20235;-70
2021/07/18 08:26:37;;;;;;;6.27;2.57;;;26.40;99.90;;;;;;5044896;28;20239;-70
2021/07/18 08:29:06;;;;;;;6.77;2.30;;;26.40;99.90;;;;;;5044857;28;20238;-70
2021/07/18 08:31:36;;;;;;;6.90;2.20;;;26.00;99.90;;;;;;5045131;28;20706;-70
2021/07/18 08:34:06;;;;;;;3.67;1.83;;;25.90;99.90;;;;;;5045225;28;20358;-70
2021/07/18 08:36:34;;;;;;;4.73;1.83;;;26.20;99.90;;;;;;5044672;28;20250;-70
2021/07/18 08:39:03;;;;;;;4.47;2.03;;;26.50;99.90;;;;;;5044503;28;20242;-69
2021/07/18 08:41:31;;;;;;;6.43;1.83;;;26.90;99.90;;;;;;5044178;28;20258;-69
2021/07/18 08:43:59;;;;;;;5.27;2.17;;;27.40;99.90;;;;;;5044965;28;20231;-69
2021/07/18 08:46:28;;;;;;;4.63;1.97;;;28.00;99.90;;;;;;5043650;28;20475;-69
2021/07/18 08:48:57;;;;;;;5.70;2.13;;;27.60;99.90;;;;;;5043747;28;20284;-70
2021/07/18 08:51:25;;;;;;;5.33;1.97;;;27.20;99.90;;;;;;5047263;28;20750;-70
2021/07/18 08:53:55;;;;;;;5.37;2.00;;;26.80;99.90;;;;;;5061091;28;20586;-70
2021/07/18 08:56:23;;;;;;;5.77;2.03;;;26.40;99.90;;;;;;5046986;28;20631;-70
2021/07/18 08:58:52;;;;;;;5.33;2.10;;;26.70;99.90;;;;;;5049747;28;20246;-69
2021/07/18 09:01:20;;;;;;;5.27;1.90;;;27.30;99.90;;;;;;5050119;28;20255;-69
2021/07/18 09:03:48;;;;;;;4.47;1.70;;;28.00;99.90;;;;;;5049282;28;20695;-70
2021/07/18 09:06:18;;;;;;;4.50;1.80;;;27.80;99.90;;;;;;5050023;28;20236;-70
2021/07/18 09:08:47;;;;;;;4.47;2.10;;;27.40;99.90;;;;;;5049458;28;20249;-70
2021/07/18 09:11:18;;;;;;;6.30;2.10;;;27.10;99.90;;;;;;5050354;28;20248;-70
2021/07/18 09:13:55;;;;;;;4.33;1.83;;;27.30;99.90;;;;;;5049589;28;20249;-70
2021/07/18 09:16:27;;;;;;;5.63;1.87;;;28.00;99.90;;;;;;5050114;28;20671;-69
2021/07/18 09:19:13;;;;;;;3.63;1.70;;;28.50;99.90;;;;;;5049158;28;20289;-70
2021/07/18 09:21:50;;;;;;;6.20;2.10;;;28.30;99.90;;;;;;5049426;28;20265;-70
2021/07/18 09:24:20;;;;;;;3.63;1.70;;;28.00;99.90;;;;;;5049835;28;20238;-70
2021/07/18 09:27:08;;;;;;;4.90;1.70;;;28.40;99.90;;;;;;5049600;28;20253;-70
2021/07/18 09:29:36;;;;;;;6.50;2.00;;;28.90;99.90;;;;;;5048829;28;20532;-69
2021/07/18 09:32:10;;;;;;;5.13;1.93;;;29.30;99.90;;;;;;5049423;28;20277;-70
2021/07/18 09:34:39;;;;;;;4.17;1.90;;;29.30;99.90;;;;;;5048329;28;20243;-70
2021/07/18 09:37:13;;;;;;;3.70;1.30;;;29.50;99.90;;;;;;5048261;28;20328;-70
2021/07/18 09:39:47;;;;;;;2.70;1.50;;;29.70;99.90;;;;;;5048440;28;20231;-70
2021/07/18 09:42:27;;;;;;;2.97;1.50;;;30.00;99.90;;;;;;5049129;28;20455;-70
2021/07/18 09:44:55;;;;;;;3.77;1.50;;;30.40;99.90;;;;;;5047873;28;20235;-70
2021/07/18 09:47:24;;;;;;;5.77;1.80;;;30.40;99.90;;;;;;5049029;28;20234;-71
2021/07/18 09:49:52;;;;;;;3.80;1.50;;;30.40;99.90;;;;;;5048147;28;20244;-70
2021/07/18 09:52:23;;;;;;;4.33;1.80;;;30.30;99.90;;;;;;5049358;28;20236;-70
2021/07/18 09:54:53;;;;;;;4.20;1.80;;;30.40;99.90;;;;;;5048895;28;20311;-70
2021/07/18 09:57:32;;;;;;;5.67;1.80;;;30.30;99.90;;;;;;5049314;28;20298;-71
2021/07/18 10:00:01;;;;;;;4.17;1.50;;;30.50;99.90;;;;;;5049072;28;20232;-70
2021/07/18 10:02:33;;;;;;;3.60;1.43;;;30.90;99.90;;;;;;5047839;28;20253;-68
2021/07/18 10:05:03;;;;;;;5.97;1.73;;;30.90;99.90;;;;;;5045770;28;20668;-69
2021/07/18 10:07:35;;;;;;;4.47;1.90;;;30.90;99.90;;;;;;5047913;28;20250;-70
2021/07/18 10:10:06;;;;;;;5.33;1.90;;;30.30;99.90;;;;;;5048551;28;20290;-70
2021/07/18 10:12:35;;;;;;;5.53;1.83;;;29.70;99.90;;;;;;5048780;28;20758;-70
2021/07/18 10:15:04;;;;;;;5.33;1.60;;;29.80;99.90;;;;;;5047951;28;20247;-70
2021/07/18 10:17:32;;;;;;;5.07;1.60;;;30.30;99.90;;;;;;5047841;28;20236;-69
2021/07/18 10:20:04;;;;;;;3.40;1.73;;;31.00;99.90;;;;;;5048417;28;20718;-70
2021/07/18 10:22:34;;;;;;;3.37;1.50;;;31.20;99.90;;;;;;5048624;28;20307;-70
2021/07/18 10:25:03;;;;;;;4.10;1.73;;;31.30;99.90;;;;;;5047771;28;20327;-70
2021/07/18 10:27:31;;;;;;;3.93;1.60;;;31.30;99.90;;;;;;5041175;28;20336;-70
2021/07/18 10:30:07;;;;;;;4.37;1.70;;;31.30;99.90;;;;;;5047259;28;20245;-70
2021/07/18 10:32:36;;;;;;;5.63;2.10;;;31.10;99.90;;;;;;5048167;28;20773;-70
2021/07/18 10:35:10;;;;;;;4.53;1.60;;;31.20;99.90;;;;;;5041661;28;20323;-70
2021/07/18 10:37:40;;;;;;;3.70;1.50;;;31.60;99.90;;;;;;5048019;28;20592;-70
2021/07/18 10:40:13;;;;;;;4.43;1.43;;;31.60;99.90;;;;;;5047747;28;20612;-70
2021/07/18 10:42:42;;;;;;;3.53;1.37;;;32.00;99.90;;;;;;5047910;28;20290;-70
2021/07/18 10:45:18;;;;;;;5.63;1.70;;;32.00;99.90;;;;;;5048016;28;20243;-70
2021/07/18 10:47:57;;;;;;;4.90;1.77;;;32.10;99.90;;;;;;5047601;28;20293;-70
2021/07/18 10:50:47;;;;;;;4.73;1.77;;;32.40;99.90;;;;;;5047354;28;20239;-70
2021/07/18 10:53:19;;;;;;;2.87;1.30;;;32.50;99.90;;;;;;5027990;28;20240;-70
2021/07/18 10:55:47;;;;;;;3.13;1.60;;;32.30;99.90;;;;;;5029555;28;20618;-70
2021/07/18 10:58:43;;;;;;;2.63;1.37;;;32.20;99.90;;;;;;5026268;28;20228;-70
2021/07/18 11:01:32;;;;;;;4.63;1.70;;;31.70;99.90;;;;;;5026989;28;20282;-71
2021/07/18 11:04:04;;;;;;;3.67;1.50;;;31.30;99.90;;;;;;5024803;28;20262;-70
2021/07/18 11:06:37;;;;;;;4.73;1.40;;;31.50;99.90;;;;;;5027576;28;20239;-70
2021/07/18 11:09:18;;;;;;;5.77;1.63;;;31.50;99.90;;;;;;5027812;28;20258;-70
2021/07/18 11:11:49;;;;;;;3.17;1.50;;;31.30;99.90;;;;;;5047649;28;20253;-70
2021/07/18 11:14:28;;;;;;;3.67;1.70;;;30.90;99.90;;;;;;5048277;28;20698;-70
2021/07/18 11:16:59;;;;;;;3.97;1.37;;;30.80;99.90;;;;;;5047910;28;20289;-70
2021/07/18 11:20:01;;;;;;;5.80;1.50;;;30.80;99.90;;;;;;5038520;28;20975;-70
2021/07/18 11:23:01;;;;;;;2.80;1.30;;;30.90;99.90;;;;;;5046839;28;20237;-70
2021/07/18 11:25:53;;;;;;;3.73;1.30;;;31.40;99.90;;;;;;5046411;28;20245;-70
2021/07/18 11:28:39;;;;;;;4.68;1.33;;;31.80;99.90;;;;;;5044363;28;20821;-68
2021/07/18 11:31:27;;;;;;;3.30;1.30;;;32.50;99.90;;;;;;5027634;28;20259;-68
2021/07/18 11:33:59;;;;;;;3.83;1.33;;;33.10;99.90;;;;;;5035526;28;20702;-69
2021/07/18 11:36:56;;;;;;;2.33;1.30;;;32.30;99.90;;;;;;5062484;28;20256;-70
2021/07/18 11:39:26;;;;;;;3.00;1.40;;;31.60;99.90;;;;;;5034770;28;20266;-69
2021/07/18 11:41:56;;;;;;;2.97;1.40;;;31.30;99.90;;;;;;5044103;28;20647;-69
2021/07/18 11:44:28;;;;;;;3.97;1.47;;;31.10;99.90;;;;;;5042300;28;20234;-69
2021/07/18 11:47:00;;;;;;;2.87;1.40;;;30.90;99.90;;;;;;5041456;28;20242;-69
2021/07/18 11:49:32;;;;;;;3.17;1.53;;;31.20;99.90;;;;;;5043341;28;20723;-69
2021/07/18 11:52:01;;;;;;;1.93;1.13;;;30.50;99.90;;;;;;5044367;28;20235;-69
2021/07/18 11:54:30;;;;;;;4.83;1.30;;;30.20;99.90;;;;;;5043964;28;20238;-69
2021/07/18 11:57:00;;;;;;;4.23;1.50;;;30.20;99.90;;;;;;5044550;28;20239;-69
2021/07/18 11:59:32;;;;;;;3.87;1.23;;;29.90;99.90;;;;;;5045587;28;20249;-69
2021/07/18 12:02:00;;;;;;;4.13;1.40;;;29.50;99.90;;;;;;5047118;28;20233;-69
2021/07/18 12:04:29;;;;;;;2.40;1.30;;;29.70;99.90;;;;;;5046775;28;20237;-69
2021/07/18 12:06:59;;;;;;;2.57;1.40;;;30.50;99.90;;;;;;5046668;28;20230;-69
2021/07/18 12:09:29;;;;;;;5.13;1.47;;;31.20;99.90;;;;;;5046264;28;20240;-69
2021/07/18 12:12:00;;;;;;;2.67;1.20;;;30.90;99.90;;;;;;5045633;28;20584;-69
2021/07/18 12:14:33;;;;;;;3.80;1.20;;;30.70;99.90;;;;;;5046798;28;20239;-69
2021/07/18 12:17:08;;;;;;;1.57;0.93;;;30.40;99.90;;;;;;5047187;28;20566;-69
2021/07/18 12:19:37;;;;;;;2.23;1.20;;;30.30;99.90;;;;;;5052926;28;20650;-69
2021/07/18 12:22:09;;;;;;;3.77;1.27;;;30.30;99.90;;;;;;5046898;28;20295;-70
2021/07/18 12:24:42;;;;;;;5.43;1.40;;;30.40;99.90;;;;;;5058462;28;20321;-69
2021/07/18 12:27:14;;;;;;;4.37;1.47;;;30.70;99.90;;;;;;5067782;28;20239;-69
2021/07/18 12:29:48;;;;;;;2.70;1.50;;;30.60;99.90;;;;;;5055831;28;20263;-69
2021/07/18 12:32:17;;;;;;;2.80;1.10;;;30.50;99.90;;;;;;5049175;28;20296;-69
2021/07/18 12:34:47;;;;;;;4.00;1.40;;;30.10;99.90;;;;;;5050267;28;20631;-69
2021/07/18 12:37:16;;;;;;;1.97;1.10;;;29.90;99.90;;;;;;5050788;28;20240;-70
2021/07/18 12:39:47;;;;;;;3.57;1.23;;;29.80;99.90;;;;;;5050011;28;20241;-69
2021/07/18 12:42:24;;;;;;;2.43;1.17;;;29.90;99.90;;;;;;5031120;28;20259;-69
2021/07/18 12:44:53;;;;;;;2.80;1.10;;;29.60;99.90;;;;;;5054549;28;20277;-69
2021/07/18 12:47:32;;;;;;;2.10;1.07;;;29.50;99.90;;;;;;5070265;28;20231;-69
2021/07/18 12:50:15;;;;;;;3.40;1.20;;;29.50;99.90;;;;;;5070438;28;20641;-70
2021/07/18 12:53:02;;;;;;;2.50;1.10;;;29.50;99.90;;;;;;5068590;28;20239;-69
2021/07/18 12:55:34;;;;;;;5.00;1.20;;;29.30;99.90;;;;;;5052963;28;20592;-70
2021/07/18 12:58:15;;;;;;;3.90;1.40;;;29.10;99.90;;;;;;5050619;28;20276;-69
2021/07/18 13:00:44;;;;;;;2.77;1.37;;;29.00;99.90;;;;;;5049454;28;20285;-69
2021/07/18 13:03:15;;;;;;;4.37;1.13;;;28.50;99.90;;;;;;5051025;28;20315;-69